sensor_id;sensor_type;location;lat;lon;timestamp;P1;durP1;ratioP1;P2;durP2;ratioP2
43042;SDS011;28667;50.758;6.096;2023-02-23T00:01:48;26.88;;;13.02;;
43042;SDS011;28667;50.758;6.096;2023-02-23T00:04:14;24.38;;;11.85;;
43042;SDS011;28667;50.758;6.096;2023-02-23T00:06:40;21.75;;;12.27;;
43042;SDS011;28667;50.758;6.096;2023-02-23T00:09:06;26.52;;;14.13;;
43042;SDS011;28667;50.758;6.096;2023-02-23T00:11:47;26.85;;;14.45;;
43042;SDS011;28667;50.758;6.096;2023-02-23T00:14:17;27.35;;;13.02;;
43042;SDS011;28667;50.758;6.096;2023-02-23T00:16:43;30.63;;;14.30;;
43042;SDS011;28667;50.758;6.096;2023-02-23T00:19:09;30.77;;;15.18;;
43042;SDS011;28667;50.758;6.096;2023-02-23T00:21:38;27.60;;;15.27;;
43042;SDS011;28667;50.758;6.096;2023-02-23T00:24:05;27.27;;;14.93;;
43042;SDS011;28667;50.758;6.096;2023-02-23T00:26:33;28.50;;;13.63;;
43042;SDS011;28667;50.758;6.096;2023-02-23T00:29:02;27.80;;;14.35;;
43042;SDS011;28667;50.758;6.096;2023-02-23T00:31:30;24.60;;;13.05;;
43042;SDS011;28667;50.758;6.096;2023-02-23T00:33:58;28.45;;;14.27;;
43042;SDS011;28667;50.758;6.096;2023-02-23T00:36:28;25.92;;;13.43;;
43042;SDS011;28667;50.758;6.096;2023-02-23T00:38:57;32.55;;;15.60;;
43042;SDS011;28667;50.758;6.096;2023-02-23T00:41:27;28.88;;;14.45;;
43042;SDS011;28667;50.758;6.096;2023-02-23T00:43:57;25.75;;;13.52;;
43042;SDS011;28667;50.758;6.096;2023-02-23T00:46:26;27.10;;;14.65;;
43042;SDS011;28667;50.758;6.096;2023-02-23T00:48:54;29.48;;;13.60;;
43042;SDS011;28667;50.758;6.096;2023-02-23T00:51:22;28.20;;;13.77;;
43042;SDS011;28667;50.758;6.096;2023-02-23T00:53:52;25.25;;;14.07;;
43042;SDS011;28667;50.758;6.096;2023-02-23T00:56:19;28.15;;;14.52;;
43042;SDS011;28667;50.758;6.096;2023-02-23T00:58:47;28.25;;;15.02;;
43042;SDS011;28667;50.758;6.096;2023-02-23T01:01:13;24.60;;;12.73;;
43042;SDS011;28667;50.758;6.096;2023-02-23T01:03:41;28.50;;;14.95;;
43042;SDS011;28667;50.758;6.096;2023-02-23T01:06:09;26.13;;;13.32;;
43042;SDS011;28667;50.758;6.096;2023-02-23T01:08:37;30.27;;;14.75;;
43042;SDS011;28667;50.758;6.096;2023-02-23T01:11:09;32.17;;;14.60;;
43042;SDS011;28667;50.758;6.096;2023-02-23T01:13:37;28.35;;;14.73;;
43042;SDS011;28667;50.758;6.096;2023-02-23T01:16:12;29.75;;;14.85;;
43042;SDS011;28667;50.758;6.096;2023-02-23T01:18:43;31.83;;;15.35;;
43042;SDS011;28667;50.758;6.096;2023-02-23T01:21:13;24.20;;;13.55;;
43042;SDS011;28667;50.758;6.096;2023-02-23T01:23:51;23.75;;;13.40;;
43042;SDS011;28667;50.758;6.096;2023-02-23T01:26:21;23.48;;;12.93;;
43042;SDS011;28667;50.758;6.096;2023-02-23T01:28:51;28.05;;;13.80;;
43042;SDS011;28667;50.758;6.096;2023-02-23T01:31:18;22.92;;;13.25;;
43042;SDS011;28667;50.758;6.096;2023-02-23T01:33:46;23.92;;;12.60;;
43042;SDS011;28667;50.758;6.096;2023-02-23T01:36:12;21.67;;;12.50;;
43042;SDS011;28667;50.758;6.096;2023-02-23T01:38:39;23.92;;;12.90;;
43042;SDS011;28667;50.758;6.096;2023-02-23T01:41:05;28.95;;;13.77;;
43042;SDS011;28667;50.758;6.096;2023-02-23T01:43:31;24.92;;;12.75;;
43042;SDS011;28667;50.758;6.096;2023-02-23T01:45:57;27.70;;;14.52;;
43042;SDS011;28667;50.758;6.096;2023-02-23T01:48:30;28.77;;;14.63;;
43042;SDS011;28667;50.758;6.096;2023-02-23T01:51:01;34.95;;;15.13;;
43042;SDS011;28667;50.758;6.096;2023-02-23T01:53:33;36.65;;;15.00;;
43042;SDS011;28667;50.758;6.096;2023-02-23T01:56:07;28.80;;;15.82;;
43042;SDS011;28667;50.758;6.096;2023-02-23T01:58:40;30.33;;;13.82;;
43042;SDS011;28667;50.758;6.096;2023-02-23T02:01:09;33.20;;;15.13;;
43042;SDS011;28667;50.758;6.096;2023-02-23T02:04:18;29.60;;;14.55;;
43042;SDS011;28667;50.758;6.096;2023-02-23T02:06:26;33.17;;;14.35;;
43042;SDS011;28667;50.758;6.096;2023-02-23T02:08:54;30.52;;;13.32;;
43042;SDS011;28667;50.758;6.096;2023-02-23T02:11:23;26.85;;;14.35;;
43042;SDS011;28667;50.758;6.096;2023-02-23T02:14:02;32.85;;;15.32;;
43042;SDS011;28667;50.758;6.096;2023-02-23T02:19:13;33.10;;;14.80;;
43042;SDS011;28667;50.758;6.096;2023-02-23T02:48:08;37.97;;;15.35;;
43042;SDS011;28667;50.758;6.096;2023-02-23T02:50:53;30.48;;;14.43;;
43042;SDS011;28667;50.758;6.096;2023-02-23T02:53:33;36.80;;;15.27;;
43042;SDS011;28667;50.758;6.096;2023-02-23T02:56:05;34.72;;;14.70;;
43042;SDS011;28667;50.758;6.096;2023-02-23T02:58:35;31.55;;;15.43;;
43042;SDS011;28667;50.758;6.096;2023-02-23T03:01:07;30.35;;;14.02;;
43042;SDS011;28667;50.758;6.096;2023-02-23T03:03:55;33.13;;;14.27;;
43042;SDS011;28667;50.758;6.096;2023-02-23T03:07:33;29.77;;;15.05;;
43042;SDS011;28667;50.758;6.096;2023-02-23T03:24:48;27.42;;;13.25;;
43042;SDS011;28667;50.758;6.096;2023-02-23T03:36:29;25.08;;;11.32;;
43042;SDS011;28667;50.758;6.096;2023-02-23T03:42:17;22.27;;;10.27;;
43042;SDS011;28667;50.758;6.096;2023-02-23T03:45:05;26.33;;;11.32;;
43042;SDS011;28667;50.758;6.096;2023-02-23T03:47:54;25.50;;;11.57;;
43042;SDS011;28667;50.758;6.096;2023-02-23T03:50:41;25.42;;;12.27;;
43042;SDS011;28667;50.758;6.096;2023-02-23T03:53:40;27.38;;;12.23;;
43042;SDS011;28667;50.758;6.096;2023-02-23T03:56:29;24.08;;;11.50;;
43042;SDS011;28667;50.758;6.096;2023-02-23T03:59:17;23.83;;;11.80;;
43042;SDS011;28667;50.758;6.096;2023-02-23T04:02:06;25.80;;;10.50;;
43042;SDS011;28667;50.758;6.096;2023-02-23T04:04:53;24.05;;;10.30;;
43042;SDS011;28667;50.758;6.096;2023-02-23T04:07:41;28.92;;;12.13;;
43042;SDS011;28667;50.758;6.096;2023-02-23T04:10:28;27.13;;;12.30;;
43042;SDS011;28667;50.758;6.096;2023-02-23T04:13:17;24.45;;;12.23;;
43042;SDS011;28667;50.758;6.096;2023-02-23T04:15:49;26.23;;;11.73;;
43042;SDS011;28667;50.758;6.096;2023-02-23T04:18:19;27.92;;;11.57;;
43042;SDS011;28667;50.758;6.096;2023-02-23T04:20:48;26.83;;;12.57;;
43042;SDS011;28667;50.758;6.096;2023-02-23T04:23:14;24.90;;;11.27;;
43042;SDS011;28667;50.758;6.096;2023-02-23T04:25:40;27.02;;;11.10;;
43042;SDS011;28667;50.758;6.096;2023-02-23T04:28:06;26.52;;;11.63;;
43042;SDS011;28667;50.758;6.096;2023-02-23T04:30:32;28.50;;;11.93;;
43042;SDS011;28667;50.758;6.096;2023-02-23T04:32:58;27.73;;;12.75;;
43042;SDS011;28667;50.758;6.096;2023-02-23T04:35:24;24.60;;;11.82;;
43042;SDS011;28667;50.758;6.096;2023-02-23T04:37:52;28.02;;;11.57;;
43042;SDS011;28667;50.758;6.096;2023-02-23T04:40:18;27.77;;;12.57;;
43042;SDS011;28667;50.758;6.096;2023-02-23T04:42:44;23.25;;;11.05;;
43042;SDS011;28667;50.758;6.096;2023-02-23T04:45:10;28.30;;;13.20;;
43042;SDS011;28667;50.758;6.096;2023-02-23T04:47:36;29.85;;;13.35;;
43042;SDS011;28667;50.758;6.096;2023-02-23T04:50:02;27.02;;;13.45;;
43042;SDS011;28667;50.758;6.096;2023-02-23T04:52:28;27.65;;;12.85;;
43042;SDS011;28667;50.758;6.096;2023-02-23T04:54:55;28.98;;;12.80;;
43042;SDS011;28667;50.758;6.096;2023-02-23T04:57:21;26.98;;;11.95;;
43042;SDS011;28667;50.758;6.096;2023-02-23T04:59:47;28.83;;;12.73;;
43042;SDS011;28667;50.758;6.096;2023-02-23T05:02:12;25.45;;;11.82;;
43042;SDS011;28667;50.758;6.096;2023-02-23T05:04:38;26.17;;;11.35;;
43042;SDS011;28667;50.758;6.096;2023-02-23T05:07:04;31.02;;;12.73;;
43042;SDS011;28667;50.758;6.096;2023-02-23T05:09:30;25.60;;;12.57;;
43042;SDS011;28667;50.758;6.096;2023-02-23T05:11:55;26.15;;;11.65;;
43042;SDS011;28667;50.758;6.096;2023-02-23T05:14:21;21.50;;;10.43;;
43042;SDS011;28667;50.758;6.096;2023-02-23T05:16:48;24.65;;;12.02;;
43042;SDS011;28667;50.758;6.096;2023-02-23T05:19:14;23.25;;;11.27;;
43042;SDS011;28667;50.758;6.096;2023-02-23T05:21:40;25.83;;;12.30;;
43042;SDS011;28667;50.758;6.096;2023-02-23T05:24:06;30.52;;;12.77;;
43042;SDS011;28667;50.758;6.096;2023-02-23T05:26:32;25.67;;;11.95;;
43042;SDS011;28667;50.758;6.096;2023-02-23T05:28:58;23.75;;;12.80;;
43042;SDS011;28667;50.758;6.096;2023-02-23T05:31:24;23.30;;;12.00;;
43042;SDS011;28667;50.758;6.096;2023-02-23T05:33:50;25.80;;;11.75;;
43042;SDS011;28667;50.758;6.096;2023-02-23T05:36:17;27.63;;;12.13;;
43042;SDS011;28667;50.758;6.096;2023-02-23T05:38:45;22.90;;;11.65;;
43042;SDS011;28667;50.758;6.096;2023-02-23T05:41:12;28.73;;;12.27;;
43042;SDS011;28667;50.758;6.096;2023-02-23T05:43:48;28.33;;;12.18;;
43042;SDS011;28667;50.758;6.096;2023-02-23T05:46:17;29.13;;;12.18;;
43042;SDS011;28667;50.758;6.096;2023-02-23T05:48:46;24.70;;;11.45;;
43042;SDS011;28667;50.758;6.096;2023-02-23T05:51:13;21.30;;;11.20;;
43042;SDS011;28667;50.758;6.096;2023-02-23T05:53:40;28.70;;;11.07;;
43042;SDS011;28667;50.758;6.096;2023-02-23T05:56:07;25.42;;;11.90;;
43042;SDS011;28667;50.758;6.096;2023-02-23T05:58:35;27.45;;;13.48;;
43042;SDS011;28667;50.758;6.096;2023-02-23T06:01:02;21.30;;;10.98;;
43042;SDS011;28667;50.758;6.096;2023-02-23T06:03:28;23.55;;;11.20;;
43042;SDS011;28667;50.758;6.096;2023-02-23T06:05:55;23.95;;;10.63;;
43042;SDS011;28667;50.758;6.096;2023-02-23T06:08:22;27.58;;;11.70;;
43042;SDS011;28667;50.758;6.096;2023-02-23T06:10:49;25.88;;;11.73;;
43042;SDS011;28667;50.758;6.096;2023-02-23T06:13:15;23.90;;;10.98;;
43042;SDS011;28667;50.758;6.096;2023-02-23T06:15:41;20.67;;;10.98;;
43042;SDS011;28667;50.758;6.096;2023-02-23T06:18:08;24.88;;;11.43;;
43042;SDS011;28667;50.758;6.096;2023-02-23T06:20:34;23.20;;;11.35;;
43042;SDS011;28667;50.758;6.096;2023-02-23T06:23:00;24.35;;;11.52;;
43042;SDS011;28667;50.758;6.096;2023-02-23T06:25:25;30.75;;;12.85;;
43042;SDS011;28667;50.758;6.096;2023-02-23T06:27:51;30.15;;;13.07;;
43042;SDS011;28667;50.758;6.096;2023-02-23T06:30:17;24.52;;;11.57;;
43042;SDS011;28667;50.758;6.096;2023-02-23T06:32:43;22.20;;;11.10;;
43042;SDS011;28667;50.758;6.096;2023-02-23T06:35:12;23.15;;;11.55;;
43042;SDS011;28667;50.758;6.096;2023-02-23T06:37:38;21.63;;;11.23;;
43042;SDS011;28667;50.758;6.096;2023-02-23T06:40:04;24.58;;;11.00;;
43042;SDS011;28667;50.758;6.096;2023-02-23T06:42:31;28.90;;;11.45;;
43042;SDS011;28667;50.758;6.096;2023-02-23T06:44:58;18.67;;;10.43;;
43042;SDS011;28667;50.758;6.096;2023-02-23T06:47:24;28.13;;;11.82;;
43042;SDS011;28667;50.758;6.096;2023-02-23T06:49:49;21.42;;;11.07;;
43042;SDS011;28667;50.758;6.096;2023-02-23T06:52:15;24.50;;;10.70;;
43042;SDS011;28667;50.758;6.096;2023-02-23T06:54:41;24.45;;;11.63;;
43042;SDS011;28667;50.758;6.096;2023-02-23T06:57:07;20.02;;;10.43;;
43042;SDS011;28667;50.758;6.096;2023-02-23T06:59:33;22.08;;;10.13;;
43042;SDS011;28667;50.758;6.096;2023-02-23T07:02:00;26.70;;;11.68;;
43042;SDS011;28667;50.758;6.096;2023-02-23T07:04:28;22.35;;;10.68;;
43042;SDS011;28667;50.758;6.096;2023-02-23T07:06:54;23.30;;;11.07;;
43042;SDS011;28667;50.758;6.096;2023-02-23T07:09:20;30.08;;;10.50;;
43042;SDS011;28667;50.758;6.096;2023-02-23T07:11:46;26.98;;;11.07;;
43042;SDS011;28667;50.758;6.096;2023-02-23T07:14:12;22.05;;;11.13;;
43042;SDS011;28667;50.758;6.096;2023-02-23T07:16:37;19.45;;;9.90;;
43042;SDS011;28667;50.758;6.096;2023-02-23T07:19:04;26.35;;;11.80;;
43042;SDS011;28667;50.758;6.096;2023-02-23T07:21:30;22.63;;;10.63;;
43042;SDS011;28667;50.758;6.096;2023-02-23T07:23:57;21.23;;;10.75;;
43042;SDS011;28667;50.758;6.096;2023-02-23T07:26:24;24.90;;;11.05;;
43042;SDS011;28667;50.758;6.096;2023-02-23T07:28:49;20.40;;;10.82;;
43042;SDS011;28667;50.758;6.096;2023-02-23T07:31:15;24.65;;;11.52;;
43042;SDS011;28667;50.758;6.096;2023-02-23T07:33:41;23.25;;;11.52;;
43042;SDS011;28667;50.758;6.096;2023-02-23T07:36:07;29.92;;;11.80;;
43042;SDS011;28667;50.758;6.096;2023-02-23T07:38:33;25.25;;;11.00;;
43042;SDS011;28667;50.758;6.096;2023-02-23T07:40:59;26.88;;;11.80;;
43042;SDS011;28667;50.758;6.096;2023-02-23T07:43:25;24.00;;;10.80;;
43042;SDS011;28667;50.758;6.096;2023-02-23T07:45:51;26.98;;;10.75;;
43042;SDS011;28667;50.758;6.096;2023-02-23T07:48:17;25.20;;;12.40;;
43042;SDS011;28667;50.758;6.096;2023-02-23T07:50:43;24.65;;;12.48;;
43042;SDS011;28667;50.758;6.096;2023-02-23T07:53:09;24.92;;;10.48;;
43042;SDS011;28667;50.758;6.096;2023-02-23T07:55:35;20.92;;;10.10;;
43042;SDS011;28667;50.758;6.096;2023-02-23T07:58:04;21.80;;;10.82;;
43042;SDS011;28667;50.758;6.096;2023-02-23T08:00:31;22.50;;;11.55;;
43042;SDS011;28667;50.758;6.096;2023-02-23T08:02:58;21.38;;;10.25;;
43042;SDS011;28667;50.758;6.096;2023-02-23T08:05:25;19.02;;;10.05;;
43042;SDS011;28667;50.758;6.096;2023-02-23T08:07:52;20.30;;;10.10;;
43042;SDS011;28667;50.758;6.096;2023-02-23T08:10:20;19.80;;;10.70;;
43042;SDS011;28667;50.758;6.096;2023-02-23T08:12:46;21.60;;;10.43;;
43042;SDS011;28667;50.758;6.096;2023-02-23T08:15:12;22.00;;;11.13;;
43042;SDS011;28667;50.758;6.096;2023-02-23T08:17:38;20.42;;;9.18;;
43042;SDS011;28667;50.758;6.096;2023-02-23T08:20:05;21.60;;;9.55;;
43042;SDS011;28667;50.758;6.096;2023-02-23T08:22:31;16.17;;;9.10;;
43042;SDS011;28667;50.758;6.096;2023-02-23T08:24:57;18.65;;;9.43;;
43042;SDS011;28667;50.758;6.096;2023-02-23T08:27:24;15.00;;;8.63;;
43042;SDS011;28667;50.758;6.096;2023-02-23T08:29:50;19.13;;;9.98;;
43042;SDS011;28667;50.758;6.096;2023-02-23T08:32:19;15.25;;;8.70;;
43042;SDS011;28667;50.758;6.096;2023-02-23T08:34:45;15.73;;;7.93;;
43042;SDS011;28667;50.758;6.096;2023-02-23T08:37:11;14.27;;;8.77;;
43042;SDS011;28667;50.758;6.096;2023-02-23T08:39:37;17.15;;;8.38;;
43042;SDS011;28667;50.758;6.096;2023-02-23T08:42:03;16.58;;;8.35;;
43042;SDS011;28667;50.758;6.096;2023-02-23T08:44:29;18.17;;;9.05;;
43042;SDS011;28667;50.758;6.096;2023-02-23T08:46:55;19.25;;;9.77;;
43042;SDS011;28667;50.758;6.096;2023-02-23T08:49:22;16.60;;;8.90;;
43042;SDS011;28667;50.758;6.096;2023-02-23T08:51:49;16.90;;;8.23;;
43042;SDS011;28667;50.758;6.096;2023-02-23T08:54:15;16.23;;;9.00;;
43042;SDS011;28667;50.758;6.096;2023-02-23T08:56:42;14.38;;;7.93;;
43042;SDS011;28667;50.758;6.096;2023-02-23T08:59:08;16.70;;;9.32;;
43042;SDS011;28667;50.758;6.096;2023-02-23T09:01:35;15.18;;;7.88;;
43042;SDS011;28667;50.758;6.096;2023-02-23T09:04:02;18.77;;;8.68;;
43042;SDS011;28667;50.758;6.096;2023-02-23T09:06:29;12.85;;;7.68;;
43042;SDS011;28667;50.758;6.096;2023-02-23T09:08:55;12.90;;;7.22;;
43042;SDS011;28667;50.758;6.096;2023-02-23T09:11:21;18.17;;;8.30;;
43042;SDS011;28667;50.758;6.096;2023-02-23T09:13:47;14.07;;;7.85;;
43042;SDS011;28667;50.758;6.096;2023-02-23T09:16:14;14.80;;;7.75;;
43042;SDS011;28667;50.758;6.096;2023-02-23T09:18:40;14.32;;;7.90;;
43042;SDS011;28667;50.758;6.096;2023-02-23T09:21:07;13.43;;;6.95;;
43042;SDS011;28667;50.758;6.096;2023-02-23T09:23:43;14.77;;;7.22;;
43042;SDS011;28667;50.758;6.096;2023-02-23T09:26:10;16.77;;;7.82;;
43042;SDS011;28667;50.758;6.096;2023-02-23T09:28:36;11.93;;;7.68;;
43042;SDS011;28667;50.758;6.096;2023-02-23T09:31:08;10.65;;;6.68;;
43042;SDS011;28667;50.758;6.096;2023-02-23T09:33:35;12.38;;;7.45;;
43042;SDS011;28667;50.758;6.096;2023-02-23T09:36:08;12.57;;;6.75;;
43042;SDS011;28667;50.758;6.096;2023-02-23T09:38:38;10.38;;;6.45;;
43042;SDS011;28667;50.758;6.096;2023-02-23T09:41:05;9.88;;;6.18;;
43042;SDS011;28667;50.758;6.096;2023-02-23T09:43:58;11.37;;;6.67;;
43042;SDS011;28667;50.758;6.096;2023-02-23T09:46:31;11.27;;;6.13;;
43042;SDS011;28667;50.758;6.096;2023-02-23T09:49:04;8.02;;;5.57;;
43042;SDS011;28667;50.758;6.096;2023-02-23T09:51:40;7.85;;;5.18;;
43042;SDS011;28667;50.758;6.096;2023-02-23T09:54:11;6.47;;;4.70;;
43042;SDS011;28667;50.758;6.096;2023-02-23T09:56:42;6.85;;;5.15;;
43042;SDS011;28667;50.758;6.096;2023-02-23T09:59:15;8.88;;;5.18;;
43042;SDS011;28667;50.758;6.096;2023-02-23T10:09:26;7.72;;;5.07;;
43042;SDS011;28667;50.758;6.096;2023-02-23T10:12:10;6.68;;;4.63;;
43042;SDS011;28667;50.758;6.096;2023-02-23T10:17:28;6.60;;;4.97;;
43042;SDS011;28667;50.758;6.096;2023-02-23T10:22:55;5.43;;;3.97;;
43042;SDS011;28667;50.758;6.096;2023-02-23T10:25:29;5.53;;;4.60;;
43042;SDS011;28667;50.758;6.096;2023-02-23T10:27:57;4.70;;;4.15;;
43042;SDS011;28667;50.758;6.096;2023-02-23T10:30:27;5.90;;;4.97;;
43042;SDS011;28667;50.758;6.096;2023-02-23T10:35:29;6.05;;;4.78;;
43042;SDS011;28667;50.758;6.096;2023-02-23T10:37:56;7.97;;;5.10;;
43042;SDS011;28667;50.758;6.096;2023-02-23T10:40:25;7.22;;;4.68;;
43042;SDS011;28667;50.758;6.096;2023-02-23T10:42:53;6.70;;;4.00;;
43042;SDS011;28667;50.758;6.096;2023-02-23T10:45:22;7.28;;;4.68;;
43042;SDS011;28667;50.758;6.096;2023-02-23T10:47:54;5.43;;;3.97;;
43042;SDS011;28667;50.758;6.096;2023-02-23T10:50:24;5.55;;;4.40;;
43042;SDS011;28667;50.758;6.096;2023-02-23T10:52:52;5.63;;;5.00;;
43042;SDS011;28667;50.758;6.096;2023-02-23T10:55:30;9.43;;;6.00;;
43042;SDS011;28667;50.758;6.096;2023-02-23T10:58:03;11.77;;;5.93;;
43042;SDS011;28667;50.758;6.096;2023-02-23T11:00:40;9.00;;;6.05;;
43042;SDS011;28667;50.758;6.096;2023-02-23T11:03:29;10.73;;;6.78;;
43042;SDS011;28667;50.758;6.096;2023-02-23T11:06:02;11.77;;;6.90;;
43042;SDS011;28667;50.758;6.096;2023-02-23T11:08:37;15.50;;;8.13;;
43042;SDS011;28667;50.758;6.096;2023-02-23T11:13:41;18.77;;;8.55;;
43042;SDS011;28667;50.758;6.096;2023-02-23T11:16:13;18.58;;;8.75;;
43042;SDS011;28667;50.758;6.096;2023-02-23T11:19:18;20.05;;;8.15;;
43042;SDS011;28667;50.758;6.096;2023-02-23T11:21:50;19.30;;;7.28;;
43042;SDS011;28667;50.758;6.096;2023-02-23T11:24:21;15.50;;;7.53;;
43042;SDS011;28667;50.758;6.096;2023-02-23T11:26:55;16.05;;;6.65;;
43042;SDS011;28667;50.758;6.096;2023-02-23T11:29:37;19.15;;;7.72;;
43042;SDS011;28667;50.758;6.096;2023-02-23T11:32:11;18.15;;;7.53;;
43042;SDS011;28667;50.758;6.096;2023-02-23T11:34:45;17.08;;;6.97;;
43042;SDS011;28667;50.758;6.096;2023-02-23T11:42:17;13.82;;;6.78;;
43042;SDS011;28667;50.758;6.096;2023-02-23T11:44:49;14.38;;;6.28;;
43042;SDS011;28667;50.758;6.096;2023-02-23T11:47:56;16.55;;;7.35;;
43042;SDS011;28667;50.758;6.096;2023-02-23T11:52:56;22.67;;;8.13;;
43042;SDS011;28667;50.758;6.096;2023-02-23T11:55:50;19.17;;;7.88;;
43042;SDS011;28667;50.758;6.096;2023-02-23T12:00:53;21.60;;;8.05;;
43042;SDS011;28667;50.758;6.096;2023-02-23T12:03:36;20.88;;;8.88;;
43042;SDS011;28667;50.758;6.096;2023-02-23T12:06:08;21.75;;;8.38;;
43042;SDS011;28667;50.758;6.096;2023-02-23T12:08:48;27.27;;;8.80;;
43042;SDS011;28667;50.758;6.096;2023-02-23T12:11:23;25.75;;;9.13;;
43042;SDS011;28667;50.758;6.096;2023-02-23T12:13:54;28.70;;;9.45;;
43042;SDS011;28667;50.758;6.096;2023-02-23T12:19:11;27.30;;;9.30;;
43042;SDS011;28667;50.758;6.096;2023-02-23T12:32:40;39.78;;;11.40;;
43042;SDS011;28667;50.758;6.096;2023-02-23T12:35:27;38.35;;;12.55;;
43042;SDS011;28667;50.758;6.096;2023-02-23T12:41:05;41.20;;;12.73;;
43042;SDS011;28667;50.758;6.096;2023-02-23T12:43:45;39.15;;;13.23;;
43042;SDS011;28667;50.758;6.096;2023-02-23T12:46:23;33.28;;;11.25;;
43042;SDS011;28667;50.758;6.096;2023-02-23T12:49:15;33.30;;;12.15;;
43042;SDS011;28667;50.758;6.096;2023-02-23T12:51:50;33.67;;;11.75;;
43042;SDS011;28667;50.758;6.096;2023-02-23T12:54:19;33.65;;;10.43;;
43042;SDS011;28667;50.758;6.096;2023-02-23T12:56:48;33.78;;;9.90;;
43042;SDS011;28667;50.758;6.096;2023-02-23T12:59:41;34.35;;;12.48;;
43042;SDS011;28667;50.758;6.096;2023-02-23T13:10:47;25.73;;;8.95;;
43042;SDS011;28667;50.758;6.096;2023-02-23T13:14:13;23.33;;;8.13;;
43042;SDS011;28667;50.758;6.096;2023-02-23T13:16:29;22.48;;;9.30;;
43042;SDS011;28667;50.758;6.096;2023-02-23T13:21:43;25.08;;;8.85;;
43042;SDS011;28667;50.758;6.096;2023-02-23T13:24:21;16.88;;;6.82;;
43042;SDS011;28667;50.758;6.096;2023-02-23T13:29:35;25.42;;;8.65;;
43042;SDS011;28667;50.758;6.096;2023-02-23T13:32:03;22.00;;;7.70;;
43042;SDS011;28667;50.758;6.096;2023-02-23T13:34:34;23.02;;;7.95;;
43042;SDS011;28667;50.758;6.096;2023-02-23T13:37:06;24.30;;;8.25;;
43042;SDS011;28667;50.758;6.096;2023-02-23T13:39:44;20.88;;;7.75;;
43042;SDS011;28667;50.758;6.096;2023-02-23T13:47:46;22.55;;;8.52;;
43042;SDS011;28667;50.758;6.096;2023-02-23T13:52:40;22.02;;;7.22;;
43042;SDS011;28667;50.758;6.096;2023-02-23T13:57:53;21.80;;;7.47;;
43042;SDS011;28667;50.758;6.096;2023-02-23T14:00:27;20.85;;;7.78;;
43042;SDS011;28667;50.758;6.096;2023-02-23T14:02:53;16.95;;;7.32;;
43042;SDS011;28667;50.758;6.096;2023-02-23T14:05:21;20.42;;;7.40;;
43042;SDS011;28667;50.758;6.096;2023-02-23T14:07:53;16.75;;;6.32;;
43042;SDS011;28667;50.758;6.096;2023-02-23T14:10:34;23.45;;;6.93;;
43042;SDS011;28667;50.758;6.096;2023-02-23T14:26:37;19.83;;;6.70;;
43042;SDS011;28667;50.758;6.096;2023-02-23T14:29:21;18.13;;;6.95;;
43042;SDS011;28667;50.758;6.096;2023-02-23T14:34:41;18.63;;;7.25;;
43042;SDS011;28667;50.758;6.096;2023-02-23T14:37:16;17.50;;;7.43;;
43042;SDS011;28667;50.758;6.096;2023-02-23T14:40:16;13.95;;;6.28;;
43042;SDS011;28667;50.758;6.096;2023-02-23T14:42:45;17.88;;;6.22;;
43042;SDS011;28667;50.758;6.096;2023-02-23T14:48:12;20.05;;;7.55;;
43042;SDS011;28667;50.758;6.096;2023-02-23T14:50:41;17.77;;;7.28;;
43042;SDS011;28667;50.758;6.096;2023-02-23T14:53:17;17.67;;;8.18;;
43042;SDS011;28667;50.758;6.096;2023-02-23T14:55:48;21.98;;;7.72;;
43042;SDS011;28667;50.758;6.096;2023-02-23T14:58:28;22.95;;;7.32;;
43042;SDS011;28667;50.758;6.096;2023-02-23T15:00:57;25.50;;;7.32;;
43042;SDS011;28667;50.758;6.096;2023-02-23T15:03:24;19.80;;;7.45;;
43042;SDS011;28667;50.758;6.096;2023-02-23T15:05:56;17.33;;;6.88;;
43042;SDS011;28667;50.758;6.096;2023-02-23T15:08:25;19.60;;;7.55;;
43042;SDS011;28667;50.758;6.096;2023-02-23T15:10:59;16.73;;;7.78;;
43042;SDS011;28667;50.758;6.096;2023-02-23T15:13:35;20.50;;;7.50;;
43042;SDS011;28667;50.758;6.096;2023-02-23T15:16:14;21.58;;;7.57;;
43042;SDS011;28667;50.758;6.096;2023-02-23T15:18:47;16.48;;;7.18;;
43042;SDS011;28667;50.758;6.096;2023-02-23T15:21:24;18.38;;;7.20;;
43042;SDS011;28667;50.758;6.096;2023-02-23T15:23:51;20.52;;;8.35;;
43042;SDS011;28667;50.758;6.096;2023-02-23T15:29:04;18.60;;;7.25;;
43042;SDS011;28667;50.758;6.096;2023-02-23T15:31:41;20.10;;;6.63;;
43042;SDS011;28667;50.758;6.096;2023-02-23T15:34:20;16.70;;;7.68;;
43042;SDS011;28667;50.758;6.096;2023-02-23T15:37:09;15.25;;;5.68;;
43042;SDS011;28667;50.758;6.096;2023-02-23T15:39:59;21.58;;;7.47;;
43042;SDS011;28667;50.758;6.096;2023-02-23T15:45:38;21.02;;;7.13;;
43042;SDS011;28667;50.758;6.096;2023-02-23T15:48:13;17.38;;;7.15;;
43042;SDS011;28667;50.758;6.096;2023-02-23T15:50:43;14.82;;;6.35;;
43042;SDS011;28667;50.758;6.096;2023-02-23T15:53:48;21.08;;;7.90;;
43042;SDS011;28667;50.758;6.096;2023-02-23T15:58:41;20.30;;;7.72;;
43042;SDS011;28667;50.758;6.096;2023-02-23T16:01:20;21.48;;;8.68;;
43042;SDS011;28667;50.758;6.096;2023-02-23T16:11:49;17.88;;;7.80;;
43042;SDS011;28667;50.758;6.096;2023-02-23T16:14:27;25.23;;;8.57;;
43042;SDS011;28667;50.758;6.096;2023-02-23T16:20:27;21.38;;;8.52;;
43042;SDS011;28667;50.758;6.096;2023-02-23T16:23:06;23.95;;;9.68;;
43042;SDS011;28667;50.758;6.096;2023-02-23T16:25:39;22.80;;;8.05;;
43042;SDS011;28667;50.758;6.096;2023-02-23T16:28:13;27.05;;;9.73;;
43042;SDS011;28667;50.758;6.096;2023-02-23T16:30:43;28.10;;;10.20;;
43042;SDS011;28667;50.758;6.096;2023-02-23T16:38:35;27.92;;;9.48;;
43042;SDS011;28667;50.758;6.096;2023-02-23T16:41:03;28.65;;;9.65;;
43042;SDS011;28667;50.758;6.096;2023-02-23T16:43:50;32.35;;;11.07;;
43042;SDS011;28667;50.758;6.096;2023-02-23T16:46:19;25.80;;;10.27;;
43042;SDS011;28667;50.758;6.096;2023-02-23T16:48:47;33.28;;;10.88;;
43042;SDS011;28667;50.758;6.096;2023-02-23T16:51:18;22.83;;;9.55;;
43042;SDS011;28667;50.758;6.096;2023-02-23T16:53:45;25.88;;;9.10;;
43042;SDS011;28667;50.758;6.096;2023-02-23T16:56:11;28.92;;;10.20;;
43042;SDS011;28667;50.758;6.096;2023-02-23T16:58:41;31.45;;;10.07;;
43042;SDS011;28667;50.758;6.096;2023-02-23T17:01:11;23.95;;;9.90;;
43042;SDS011;28667;50.758;6.096;2023-02-23T17:03:40;19.58;;;9.05;;
43042;SDS011;28667;50.758;6.096;2023-02-23T17:06:07;29.52;;;10.05;;
43042;SDS011;28667;50.758;6.096;2023-02-23T17:08:33;31.08;;;10.85;;
43042;SDS011;28667;50.758;6.096;2023-02-23T17:10:59;25.48;;;9.65;;
43042;SDS011;28667;50.758;6.096;2023-02-23T17:13:27;23.88;;;9.43;;
43042;SDS011;28667;50.758;6.096;2023-02-23T17:15:57;25.42;;;9.85;;
43042;SDS011;28667;50.758;6.096;2023-02-23T17:18:32;26.42;;;9.52;;
43042;SDS011;28667;50.758;6.096;2023-02-23T17:23:28;21.73;;;9.35;;
43042;SDS011;28667;50.758;6.096;2023-02-23T17:28:32;25.40;;;10.40;;
43042;SDS011;28667;50.758;6.096;2023-02-23T17:30:58;26.60;;;8.98;;
43042;SDS011;28667;50.758;6.096;2023-02-23T17:33:24;25.00;;;8.35;;
43042;SDS011;28667;50.758;6.096;2023-02-23T17:35:52;22.27;;;9.02;;
43042;SDS011;28667;50.758;6.096;2023-02-23T17:38:18;29.55;;;10.07;;
43042;SDS011;28667;50.758;6.096;2023-02-23T17:40:45;26.73;;;9.93;;
43042;SDS011;28667;50.758;6.096;2023-02-23T17:43:11;25.80;;;9.40;;
43042;SDS011;28667;50.758;6.096;2023-02-23T17:45:37;24.77;;;10.38;;
43042;SDS011;28667;50.758;6.096;2023-02-23T17:48:03;24.35;;;9.73;;